Time;durP1;ratioP1;P1;durP2;ratioP2;P2;SDS_P1;SDS_P2;PMS_P1;PMS_P2;Temp;Humidity;BMP_temperature;BMP_pressure;BME280_temperature;BME280_humidity;BME280_pressure;Samples;Min_cycle;Max_cycle;Signal;HPM_P1;HPM_P2
2021/04/14 00:02:22;;;;;;;7.82;7.05;;;;;;;7.02;68.76;101199.38;5090523;28;20494;-69
2021/04/14 00:04:49;;;;;;;7.35;6.65;;;;;;;6.95;68.99;101191.75;5091367;28;20036;-69
2021/04/14 00:07:15;;;;;;;6.68;6.07;;;;;;;7.05;68.03;101190.69;5091424;28;20067;-69
2021/04/14 00:09:43;;;;;;;6.88;6.18;;;;;;;6.93;68.47;101198.72;5091445;28;20051;-69
2021/04/14 00:12:11;;;;;;;8.75;6.20;;;;;;;6.99;68.09;101193.41;5090951;28;20040;-70
2021/04/14 00:14:38;;;;;;;6.93;6.30;;;;;;;7.07;68.48;101196.69;5091271;28;20052;-69
2021/04/14 00:17:05;;;;;;;6.82;6.28;;;;;;;6.97;68.32;101205.53;5093025;28;20070;-69
2021/04/14 00:19:32;;;;;;;8.35;6.03;;;;;;;6.87;68.43;101206.59;5089309;28;20036;-69
2021/04/14 00:21:59;;;;;;;6.25;5.43;;;;;;;6.93;67.91;101209.09;5091370;28;20097;-68
2021/04/14 00:24:26;;;;;;;6.57;5.47;;;;;;;6.83;68.41;101205.81;5091462;28;20043;-69
2021/04/14 00:26:52;;;;;;;6.10;5.50;;;;;;;6.94;68.44;101203.88;5092678;28;20120;-69
2021/04/14 00:29:19;;;;;;;6.65;6.05;;;;;;;6.96;67.82;101211.63;5090633;28;20060;-69
2021/04/14 00:31:46;;;;;;;6.32;5.53;;;;;;;6.77;68.16;101204.22;5091901;28;20043;-68
2021/04/14 00:34:19;;;;;;;5.82;5.15;;;;;;;6.75;69.33;101211.13;5089731;28;20119;-68
2021/04/14 00:36:48;;;;;;;6.32;5.18;;;;;;;7.01;67.26;101214.97;5092074;28;20463;-67
2021/04/14 00:39:23;;;;;;;5.30;4.80;;;;;;;7.00;67.94;101219.31;5089937;28;20044;-68
2021/04/14 00:41:52;;;;;;;5.68;5.18;;;;;;;6.95;67.49;101207.31;5088737;28;20131;-68
2021/04/14 00:44:20;;;;;;;6.90;5.55;;;;;;;6.85;68.21;101206.63;5086785;28;20054;-68
2021/04/14 00:46:47;;;;;;;6.43;5.82;;;;;;;6.90;68.13;101206.56;5089729;28;20072;-68
2021/04/14 00:49:13;;;;;;;5.93;5.40;;;;;;;6.82;67.97;101199.78;5089207;28;20044;-68
2021/04/14 00:51:41;;;;;;;5.57;4.97;;;;;;;6.96;66.99;101196.06;5089999;28;20049;-68
2021/04/14 00:54:09;;;;;;;5.70;5.10;;;;;;;6.81;67.58;101203.25;5091675;28;20130;-68
2021/04/14 00:56:36;;;;;;;6.28;5.68;;;;;;;6.70;67.89;101196.56;5088665;28;20534;-68
2021/04/14 00:59:03;;;;;;;6.00;5.40;;;;;;;6.69;68.19;101197.44;5089823;28;20123;-69
2021/04/14 01:01:29;;;;;;;8.32;6.53;;;;;;;6.48;69.00;101196.94;5090030;28;20093;-69
2021/04/14 01:03:56;;;;;;;6.32;5.75;;;;;;;6.69;68.63;101190.53;5090343;28;20070;-69
2021/04/14 01:06:25;;;;;;;6.07;5.50;;;;;;;6.63;68.42;101193.25;5090416;28;20107;-67
2021/04/14 01:08:52;;;;;;;6.68;6.07;;;;;;;6.64;69.15;101188.91;5091557;28;20409;-68
2021/04/14 01:11:21;;;;;;;8.27;6.63;;;;;;;6.49;69.00;101182.25;5089202;28;20043;-68
2021/04/14 01:13:48;;;;;;;6.05;5.32;;;;;;;6.56;69.15;101179.56;5090404;28;20067;-68
2021/04/14 01:16:14;;;;;;;6.70;6.10;;;;;;;6.66;68.71;101172.47;5090388;28;20044;-68
2021/04/14 01:18:41;;;;;;;5.55;4.80;;;;;;;6.52;69.12;101180.47;5088557;28;20052;-67
2021/04/14 01:21:29;;;;;;;5.70;5.10;;;;;;;6.54;68.88;101175.25;5089982;28;20127;-68
2021/04/14 01:23:55;;;;;;;6.90;5.63;;;;;;;6.61;68.30;101168.25;5078915;28;20044;-68
2021/04/14 01:26:21;;;;;;;5.95;4.90;;;;;;;6.49;67.94;101169.31;5094333;28;20040;-68
2021/04/14 01:28:48;;;;;;;6.78;5.00;;;;;;;6.45;69.16;101165.94;5093447;28;20048;-69
2021/04/14 01:31:18;;;;;;;5.00;4.50;;;;;;;6.62;67.77;101164.78;5095045;28;20032;-69
2021/04/14 01:33:45;;;;;;;6.20;4.57;;;;;;;6.57;68.54;101167.44;5092397;28;20076;-69
2021/04/14 01:36:12;;;;;;;5.97;4.70;;;;;;;6.50;68.79;101160.69;5094443;28;20075;-69
2021/04/14 01:38:39;;;;;;;5.00;4.50;;;;;;;6.42;69.05;101147.84;5093291;28;20569;-69
2021/04/14 01:41:08;;;;;;;5.70;4.47;;;;;;;6.45;68.70;101157.31;5092778;28;20429;-69
2021/04/14 01:43:35;;;;;;;6.72;4.18;;;;;;;6.43;68.53;101149.56;5093025;28;20078;-69
2021/04/14 01:46:01;;;;;;;6.03;4.53;;;;;;;6.13;69.21;101148.41;5092361;28;20074;-70
2021/04/14 01:48:28;;;;;;;5.78;4.90;;;;;;;6.22;69.55;101153.38;5092692;28;20105;-69
2021/04/14 01:50:54;;;;;;;4.93;4.43;;;;;;;6.36;69.11;101147.13;5092242;28;20055;-69
2021/04/14 01:53:21;;;;;;;3.83;3.42;;;;;;;6.40;69.24;101143.59;5092984;28;20075;-69
2021/04/14 01:55:50;;;;;;;5.82;4.10;;;;;;;6.42;68.68;101150.44;5093848;28;20599;-68
2021/04/14 01:58:18;;;;;;;5.40;3.67;;;;;;;6.41;68.37;101142.72;5092399;28;20455;-69
2021/04/14 02:00:48;;;;;;;5.07;4.07;;;;;;;6.30;69.46;101145.50;5090959;28;20486;-67
2021/04/14 02:03:14;;;;;;;6.13;4.57;;;;;;;6.51;68.62;101142.50;5074903;28;20502;-68
2021/04/14 02:05:41;;;;;;;6.22;3.47;;;;;;;6.42;68.37;101140.09;5092264;28;20059;-69
2021/04/14 02:08:09;;;;;;;3.72;3.10;;;;;;;6.37;68.52;101149.69;5092847;28;20072;-69
2021/04/14 02:10:37;;;;;;;3.83;3.15;;;;;;;6.35;68.51;101142.84;5092277;28;20044;-69
2021/04/14 02:13:17;;;;;;;5.13;3.53;;;;;;;6.40;67.77;101143.59;5091998;28;20052;-68
2021/04/14 02:15:43;;;;;;;5.60;2.88;;;;;;;6.46;67.54;101138.31;5091279;28;20086;-69
2021/04/14 02:18:10;;;;;;;3.92;3.33;;;;;;;6.74;65.45;101146.38;5093267;28;20040;-69
2021/04/14 02:20:37;;;;;;;5.05;4.32;;;;;;;6.39;67.01;101144.47;5091956;28;20106;-69
2021/04/14 02:23:20;;;;;;;5.63;4.32;;;;;;;6.26;67.45;101139.50;5093410;28;20388;-69
2021/04/14 02:25:47;;;;;;;5.38;3.80;;;;;;;6.27;68.38;101138.63;5092183;28;20486;-69
2021/04/14 02:28:15;;;;;;;4.50;3.72;;;;;;;6.14;68.83;101136.31;5091300;28;20132;-69
2021/04/14 02:30:44;;;;;;;31.33;5.18;;;;;;;6.25;68.76;101135.22;5091767;28;20141;-69
2021/04/14 02:33:10;;;;;;;5.30;4.80;;;;;;;6.23;69.02;101130.94;5091825;28;20052;-69
2021/04/14 02:35:38;;;;;;;4.70;4.30;;;;;;;6.22;68.85;101139.59;5091350;28;20044;-69
2021/04/14 02:38:06;;;;;;;4.68;4.25;;;;;;;6.10;69.65;101150.16;5092372;28;20483;-68
2021/04/14 02:40:33;;;;;;;4.72;3.97;;;;;;;6.19;68.00;101140.50;5091436;28;20101;-69
2021/04/14 02:43:00;;;;;;;5.50;4.20;;;;;;;6.19;68.85;101135.34;5092852;28;20136;-69
2021/04/14 02:45:28;;;;;;;4.30;3.90;;;;;;;6.10;68.35;101135.50;5091307;28;20055;-69
2021/04/14 02:47:55;;;;;;;4.35;3.88;;;;;;;6.24;68.47;101140.44;5093730;28;20489;-69
2021/04/14 02:50:22;;;;;;;4.38;3.85;;;;;;;6.16;68.34;101139.69;5091483;28;20127;-68
2021/04/14 02:52:48;;;;;;;4.70;4.07;;;;;;;6.41;66.84;101140.13;5093144;28;20044;-69
2021/04/14 02:55:17;;;;;;;4.10;3.60;;;;;;;6.41;65.84;101130.63;5091331;28;20054;-69
2021/04/14 02:57:45;;;;;;;6.95;4.00;;;;;;;6.13;67.42;101137.19;5093335;28;20082;-71
2021/04/14 03:00:13;;;;;;;4.88;4.47;;;;;;;6.20;67.99;101131.00;5091104;28;20047;-71
2021/04/14 03:02:39;;;;;;;4.90;3.35;;;;;;;6.15;67.88;101138.84;5091986;28;20115;-70
2021/04/14 03:05:09;;;;;;;4.22;3.83;;;;;;;6.18;68.24;101132.75;5090721;28;20079;-70
2021/04/14 03:07:36;;;;;;;3.42;3.13;;;;;;;6.11;68.13;101138.94;5091779;28;20513;-69
2021/04/14 03:10:04;;;;;;;4.40;4.00;;;;;;;5.94;67.93;101134.91;5090888;28;20582;-69
2021/04/14 03:12:31;;;;;;;3.72;3.42;;;;;;;5.91;69.64;101141.81;5092986;28;20118;-70
2021/04/14 03:14:57;;;;;;;3.42;3.03;;;;;;;6.02;68.91;101142.53;5091065;28;20044;-69
2021/04/14 03:17:24;;;;;;;3.63;3.33;;;;;;;6.01;68.93;101138.22;5093185;28;20142;-69
2021/04/14 03:19:50;;;;;;;3.90;2.50;;;;;;;6.00;68.29;101139.97;5090590;28;20040;-69
2021/04/14 03:22:17;;;;;;;3.33;2.90;;;;;;;5.96;68.82;101137.44;5092658;28;20517;-69
2021/04/14 03:24:44;;;;;;;3.95;3.55;;;;;;;5.88;69.22;101139.28;5091202;28;20627;-69
2021/04/14 03:27:10;;;;;;;6.35;3.95;;;;;;;5.90;69.67;101142.69;5092546;28;20128;-70
2021/04/14 03:29:36;;;;;;;5.60;3.38;;;;;;;5.97;69.06;101137.44;5091168;28;20036;-70
2021/04/14 03:32:03;;;;;;;3.70;3.40;;;;;;;5.98;68.70;101143.47;5092448;28;20060;-68
2021/04/14 03:34:30;;;;;;;3.88;3.55;;;;;;;5.92;69.55;101138.41;5089646;28;20052;-68
2021/04/14 03:36:56;;;;;;;2.97;2.78;;;;;;;5.90;69.21;101138.38;5091921;28;20048;-68
2021/04/14 03:39:23;;;;;;;4.20;3.80;;;;;;;5.85;69.74;101135.00;5079986;28;20090;-68
2021/04/14 03:41:49;;;;;;;3.67;3.38;;;;;;;5.85;69.28;101139.34;5073238;28;20068;-68
2021/04/14 03:44:16;;;;;;;4.50;3.90;;;;;;;5.95;68.68;101130.56;5049079;28;20431;-69
2021/04/14 03:46:42;;;;;;;3.92;3.63;;;;;;;5.97;69.35;101139.19;4987839;28;20093;-69
2021/04/14 03:49:10;;;;;;;6.70;3.88;;;;;;;5.93;69.18;101133.19;4997580;28;20046;-69
2021/04/14 03:51:36;;;;;;;3.40;3.10;;;;;;;5.78;69.54;101134.25;5010885;28;20042;-68
2021/04/14 03:54:03;;;;;;;2.92;2.72;;;;;;;5.87;69.33;101140.19;5011697;28;20131;-68
2021/04/14 03:56:47;;;;;;;3.50;3.20;;;;;;;5.87;68.67;101137.59;5000280;28;20034;-68
2021/04/14 03:59:14;;;;;;;4.05;3.30;;;;;;;5.87;68.15;101141.03;5010256;28;20045;-68
2021/04/14 04:01:40;;;;;;;3.35;3.05;;;;;;;5.87;68.95;101143.63;5012462;28;20038;-70
2021/04/14 04:04:07;;;;;;;5.65;2.90;;;;;;;5.69;68.78;101149.91;5011957;28;20045;-70
2021/04/14 04:06:33;;;;;;;4.45;3.13;;;;;;;5.74;68.76;101145.53;5011521;28;20481;-70
2021/04/14 04:09:00;;;;;;;3.75;3.45;;;;;;;5.58;69.98;101148.38;5011918;28;20061;-69
2021/04/14 04:11:26;;;;;;;7.30;3.40;;;;;;;5.70;69.33;101145.59;5007557;28;20066;-68
2021/04/14 04:13:55;;;;;;;3.28;2.97;;;;;;;5.75;68.98;101147.25;4992717;28;20485;-68
2021/04/14 04:16:22;;;;;;;5.13;3.80;;;;;;;5.65;68.98;101148.28;5007419;28;20125;-68
2021/04/14 04:18:50;;;;;;;4.60;4.18;;;;;;;5.75;68.48;101155.03;5006945;28;20030;-68
2021/04/14 04:21:17;;;;;;;3.67;3.33;;;;;;;5.72;68.65;101149.88;5008682;28;20439;-68
2021/04/14 04:23:44;;;;;;;4.47;4.07;;;;;;;5.55;69.05;101156.19;5003536;28;20133;-69
2021/04/14 04:26:11;;;;;;;4.63;3.35;;;;;;;5.56;69.31;101152.72;4998547;28;20097;-68
2021/04/14 04:28:37;;;;;;;4.72;3.33;;;;;;;5.70;68.57;101149.06;4999014;28;20047;-67
2021/04/14 04:31:04;;;;;;;4.30;3.50;;;;;;;5.56;69.15;101143.25;5007721;28;20046;-69
2021/04/14 04:33:31;;;;;;;4.53;4.13;;;;;;;5.60;68.66;101151.81;5008205;28;20046;-68
2021/04/14 04:35:58;;;;;;;5.65;5.07;;;;;;;5.56;69.51;101148.41;5010504;28;20069;-68
2021/04/14 04:38:25;;;;;;;5.43;4.43;;;;;;;5.58;69.51;101157.00;5007414;28;20038;-68
2021/04/14 04:40:51;;;;;;;4.07;3.78;;;;;;;5.58;69.48;101157.00;5002389;28;20502;-68
2021/04/14 04:43:18;;;;;;;4.55;4.15;;;;;;;5.62;69.68;101148.31;5011062;28;20045;-68
2021/04/14 04:45:45;;;;;;;4.95;4.13;;;;;;;5.54;70.48;101150.19;5003551;28;20528;-68
2021/04/14 04:48:11;;;;;;;5.30;4.80;;;;;;;5.67;69.84;101156.00;4993288;28;20043;-68
2021/04/14 04:50:39;;;;;;;5.43;4.93;;;;;;;5.59;69.62;101158.69;4997977;28;20042;-68
2021/04/14 04:53:12;;;;;;;5.70;4.47;;;;;;;5.62;70.01;101166.41;5011747;28;20133;-67
2021/04/14 04:55:44;;;;;;;5.15;4.65;;;;;;;5.63;69.94;101170.72;5011152;28;20125;-68
2021/04/14 04:58:11;;;;;;;6.22;4.90;;;;;;;5.71;69.73;101176.63;5013798;28;20054;-68
2021/04/14 05:00:38;;;;;;;8.27;5.90;;;;;;;5.69;69.27;101165.44;5009579;28;20038;-69
2021/04/14 05:03:06;;;;;;;7.95;5.32;;;;;;;5.79;68.65;101176.50;5008901;28;20047;-68
2021/04/14 05:05:36;;;;;;;9.10;5.03;;;;;;;5.87;69.69;101174.66;5013929;28;20137;-68
2021/04/14 05:08:07;;;;;;;7.75;5.72;;;;;;;5.81;70.13;101181.69;5011748;28;20034;-67
2021/04/14 05:10:34;;;;;;;4.97;4.47;;;;;;;6.20;69.22;101178.47;5010750;28;20038;-67
2021/04/14 05:13:02;;;;;;;5.35;4.85;;;;;;;6.43;67.86;101180.63;5011138;28;20042;-67
2021/04/14 05:15:32;;;;;;;4.80;4.30;;;;;;;6.43;67.67;101182.38;5006863;28;20124;-65
2021/04/14 05:17:59;;;;;;;5.47;4.97;;;;;;;7.19;65.19;101186.09;5008681;28;20049;-64
2021/04/14 05:20:26;;;;;;;5.97;5.47;;;;;;;7.14;67.39;101187.91;5011603;28;20121;-66
2021/04/14 05:22:54;;;;;;;6.35;5.75;;;;;;;7.46;65.91;101187.22;5013299;28;20049;-62
2021/04/14 05:25:22;;;;;;;7.13;5.72;;;;;;;7.63;65.01;101194.63;5007726;28;20061;-63
2021/04/14 05:27:51;;;;;;;4.40;3.88;;;;;;;7.97;62.75;101193.84;5005443;28;20044;-65
2021/04/14 05:30:19;;;;;;;5.80;4.10;;;;;;;7.84;61.12;101201.94;5011246;28;20084;-67
2021/04/14 05:32:46;;;;;;;7.32;6.38;;;;;;;8.07;63.30;101197.91;5009346;28;20097;-68
2021/04/14 05:35:13;;;;;;;10.20;5.03;;;;;;;8.41;63.00;101197.94;5009712;28;20050;-67
2021/04/14 05:37:40;;;;;;;5.57;4.80;;;;;;;8.88;60.57;101208.81;5010885;28;20100;-71
2021/04/14 05:40:07;;;;;;;5.35;4.85;;;;;;;9.09;61.07;101218.63;5005400;28;20045;-79
2021/04/14 05:42:47;;;;;;;6.20;4.90;;;;;;;9.55;59.46;101209.47;5007919;28;20061;-72
2021/04/14 05:45:18;;;;;;;5.32;4.75;;;;;;;9.78;59.29;101207.91;5006537;28;20540;-71
2021/04/14 05:47:44;;;;;;;7.40;5.93;;;;;;;10.01;58.37;101208.03;5003497;28;20077;-66
2021/04/14 05:50:14;;;;;;;18.67;6.75;;;;;;;10.30;56.00;101208.88;4999512;28;20050;-66
2021/04/14 05:52:41;;;;;;;9.95;4.75;;;;;;;10.68;56.34;101205.78;4998831;28;20116;-68
2021/04/14 05:55:08;;;;;;;7.13;6.53;;;;;;;10.81;55.52;101200.97;4994231;28;20045;-74
2021/04/14 05:57:35;;;;;;;6.82;6.13;;;;;;;11.12;54.73;101205.09;5000599;28;20406;-72
2021/04/14 06:00:03;;;;;;;9.60;7.07;;;;;;;11.37;54.46;101208.50;5008155;28;20077;-72
2021/04/14 06:02:30;;;;;;;8.80;6.15;;;;;;;11.72;52.40;101211.53;4998286;28;20048;-71
2021/04/14 06:04:57;;;;;;;8.55;6.20;;;;;;;12.19;51.47;101206.16;4994292;28;20133;-72
2021/04/14 06:07:24;;;;;;;7.28;6.60;;;;;;;12.28;50.00;101205.78;4994225;28;20557;-69
2021/04/14 06:09:51;;;;;;;11.10;6.40;;;;;;;12.42;48.97;101213.91;4995083;28;20129;-70
2021/04/14 06:12:19;;;;;;;8.35;6.07;;;;;;;12.63;48.87;101211.28;4994891;28;20050;-70
2021/04/14 06:14:45;;;;;;;11.52;5.88;;;;;;;12.85;48.94;101215.50;4998596;28;20125;-67
2021/04/14 06:17:12;;;;;;;9.35;6.18;;;;;;;12.73;48.91;101213.44;5005905;28;20084;-67
2021/04/14 06:19:38;;;;;;;10.70;5.85;;;;;;;12.81;50.21;101216.56;4996652;28;20133;-67
2021/04/14 06:22:05;;;;;;;8.35;5.78;;;;;;;13.58;47.11;101218.31;5006794;28;20400;-68
2021/04/14 06:24:32;;;;;;;9.38;6.18;;;;;;;14.19;46.09;101217.16;5004145;28;20053;-70
2021/04/14 06:27:03;;;;;;;8.10;5.80;;;;;;;14.23;46.21;101205.59;5002909;28;20129;-79
2021/04/14 06:29:29;;;;;;;8.32;6.05;;;;;;;13.50;46.35;101220.47;5000040;28;20038;-69
2021/04/14 06:31:58;;;;;;;6.30;5.68;;;;;;;14.15;46.68;101219.06;5000920;28;20421;-73
2021/04/14 06:34:26;;;;;;;8.35;6.07;;;;;;;14.21;45.97;101213.53;4998154;28;20405;-73
2021/04/14 06:36:56;;;;;;;12.63;6.00;;;;;;;13.51;47.70;101222.16;5001569;28;20073;-73
2021/04/14 06:39:27;;;;;;;9.82;6.13;;;;;;;14.52;46.05;101218.13;5002459;28;20168;-72
2021/04/14 06:44:51;;;;;;;6.93;4.53;;;;;;;15.18;44.04;101220.78;5005237;28;20050;-73
2021/04/14 06:47:20;;;;;;;6.68;5.13;;;;;;;15.71;43.15;101221.41;4995815;28;20042;-74
2021/04/14 06:50:14;;;;;;;8.65;4.22;;;;;;;16.02;42.04;101220.53;4992543;28;20074;-71
2021/04/14 06:53:14;;;;;;;7.50;4.93;;;;;;;15.95;43.07;101217.41;4993021;28;20046;-72
2021/04/14 06:56:02;;;;;;;9.20;4.57;;;;;;;16.56;41.33;101231.41;4993994;28;20481;-70
2021/04/14 06:58:41;;;;;;;9.88;4.53;;;;;;;16.56;41.30;101220.88;4997875;28;20050;-68
2021/04/14 07:01:13;;;;;;;6.57;4.40;;;;;;;15.83;43.45;101225.16;5013228;28;20046;-69
2021/04/14 07:04:02;;;;;;;7.45;4.50;;;;;;;16.81;40.71;101222.06;5003127;28;20046;-69
2021/04/14 07:06:32;;;;;;;9.20;4.70;;;;;;;16.77;41.25;101216.97;4993147;28;20050;-71
2021/04/14 07:09:15;;;;;;;9.35;5.78;;;;;;;16.83;39.13;101218.44;5000908;28;20132;-69
2021/04/14 07:11:43;;;;;;;5.97;4.40;;;;;;;17.24;36.88;101207.94;5012313;28;20127;-67
2021/04/14 07:14:10;;;;;;;7.10;4.80;;;;;;;17.70;38.15;101199.75;5000707;28;20477;-69
2021/04/14 07:17:05;;;;;;;5.15;4.63;;;;;;;17.45;36.79;101202.28;4992256;28;20061;-66
2021/04/14 07:19:51;;;;;;;8.27;4.32;;;;;;;18.02;35.76;101199.50;4991998;28;20092;-65
2021/04/14 07:22:35;;;;;;;6.05;4.00;;;;;;;16.22;37.85;101204.44;4990552;28;20042;-67
2021/04/14 07:25:15;;;;;;;7.63;3.97;;;;;;;18.02;36.14;101204.75;4992730;28;20555;-69
2021/04/14 07:28:34;;;;;;;6.05;5.00;;;;;;;18.85;35.57;101210.59;4992312;28;20050;-69
2021/04/14 07:31:04;;;;;;;12.10;6.55;;;;;;;19.25;35.26;101199.88;4969734;28;20047;-68
2021/04/14 07:33:39;;;;;;;3.63;3.28;;;;;;;18.49;33.73;101208.66;4999779;28;20134;-67
2021/04/14 07:36:24;;;;;;;3.22;2.92;;;;;;;17.65;34.52;101216.81;5011207;28;20069;-67
2021/04/14 07:38:50;;;;;;;;;;;;;;;18.38;34.39;101213.81;5013925;28;20070;-65
2021/04/14 07:41:36;;;;;;;5.32;3.55;;;;;;;19.02;34.52;101218.19;5012652;28;19925;-68
2021/04/14 07:44:10;;;;;;;3.45;3.15;;;;;;;20.11;32.95;101213.00;5001615;28;20050;-70
2021/04/14 07:46:40;;;;;;;6.15;3.50;;;;;;;18.48;33.72;101209.59;5009708;28;20050;-67
2021/04/14 07:49:08;;;;;;;3.95;2.60;;;;;;;19.67;30.09;101216.28;4991851;28;20051;-67
2021/04/14 07:51:35;;;;;;;2.10;1.90;;;;;;;19.81;31.85;101210.81;4992638;28;20057;-69
2021/04/14 07:54:08;;;;;;;4.93;2.13;;;;;;;20.68;31.47;101212.22;4992299;28;20054;-68
2021/04/14 07:56:49;;;;;;;3.97;2.97;;;;;;;20.52;31.26;101206.41;4992974;28;20494;-70
2021/04/14 07:59:27;;;;;;;3.58;3.25;;;;;;;19.91;32.04;101217.13;4993173;28;20047;-68
2021/04/14 08:01:58;;;;;;;5.20;3.03;;;;;;;20.97;30.23;101211.75;4991852;28;20524;-66
2021/04/14 08:04:27;;;;;;;3.25;2.60;;;;;;;20.53;30.55;101205.44;5010749;28;20095;-66
2021/04/14 08:07:04;;;;;;;3.08;2.80;;;;;;;18.97;32.50;101214.19;5011947;28;20689;-66
2021/04/14 08:09:32;;;;;;;4.25;3.35;;;;;;;19.08;33.88;101216.94;5009948;28;20056;-67
2021/04/14 08:12:05;;;;;;;2.83;2.55;;;;;;;19.67;33.58;101217.13;4991948;28;20057;-66
2021/04/14 08:14:38;;;;;;;3.53;2.90;;;;;;;20.44;31.88;101206.94;5009694;28;20141;-67
2021/04/14 08:17:21;;;;;;;6.35;3.17;;;;;;;20.20;31.66;101212.31;5012302;28;20069;-66
2021/04/14 08:20:00;;;;;;;3.13;2.90;;;;;;;19.88;29.57;101210.25;4991604;28;20068;-65
2021/04/14 08:22:29;;;;;;;3.17;2.70;;;;;;;20.50;30.31;101206.50;4991716;28;20049;-64
2021/04/14 08:24:59;;;;;;;2.75;2.50;;;;;;;20.51;28.62;101212.69;5009618;28;20042;-68
2021/04/14 08:27:33;;;;;;;3.50;3.20;;;;;;;19.56;30.95;101217.03;5009670;28;21462;-71
2021/04/14 08:30:02;;;;;;;3.27;2.90;;;;;;;20.85;29.01;101216.22;5007453;28;20054;-72
2021/04/14 08:32:35;;;;;;;2.90;2.70;;;;;;;20.58;29.71;101213.88;5013996;28;20300;-73
2021/04/14 08:35:07;;;;;;;3.10;2.70;;;;;;;21.28;29.87;101224.28;5006995;28;20046;-70
2021/04/14 08:37:35;;;;;;;4.07;3.15;;;;;;;21.47;29.54;101214.91;4995168;28;20046;-73
2021/04/14 08:40:18;;;;;;;3.30;3.00;;;;;;;20.90;28.61;101214.88;4996000;28;20062;-71
2021/04/14 08:42:45;;;;;;;2.35;2.15;;;;;;;21.40;29.58;101211.88;5010670;28;20073;-71
2021/04/14 08:45:26;;;;;;;4.25;2.53;;;;;;;21.20;30.11;101213.44;5013605;28;20129;-71
2021/04/14 08:48:13;;;;;;;2.80;2.60;;;;;;;21.78;29.23;101210.56;5002688;28;20501;-74
2021/04/14 08:50:44;;;;;;;3.00;2.65;;;;;;;21.21;28.95;101214.28;4994811;28;20058;-73
2021/04/14 08:53:16;;;;;;;5.03;2.78;;;;;;;21.20;29.30;101208.16;4996405;28;20053;-72
2021/04/14 08:55:43;;;;;;;3.33;2.20;;;;;;;20.85;29.14;101198.50;4994742;28;20042;-73
2021/04/14 08:58:18;;;;;;;3.22;2.47;;;;;;;21.16;28.74;101201.41;5004449;28;20050;-71
2021/04/14 09:00:45;;;;;;;4.05;2.47;;;;;;;21.58;30.07;101204.25;5013942;28;20129;-70
2021/04/14 09:03:17;;;;;;;3.08;2.72;;;;;;;20.64;28.93;101205.47;5012363;28;20134;-69
2021/04/14 09:05:45;;;;;;;2.60;2.38;;;;;;;21.10;29.27;101201.88;5015248;28;20521;-71
2021/04/14 09:08:19;;;;;;;3.05;2.50;;;;;;;20.62;28.83;101199.44;5001949;28;20038;-70
2021/04/14 09:10:57;;;;;;;2.70;2.42;;;;;;;19.62;30.51;101206.03;4994115;28;20117;-75
2021/04/14 09:14:02;;;;;;;2.20;2.03;;;;;;;20.05;30.36;101192.28;4997900;28;20521;-70
2021/04/14 09:16:29;;;;;;;;;;;;;;;19.60;32.12;101200.00;5014365;28;20058;-70
2021/04/14 09:19:13;;;;;;;3.28;2.80;;;;;;;19.26;31.11;101199.75;5006114;28;19961;-66
2021/04/14 09:21:54;;;;;;;4.82;3.40;;;;;;;19.84;31.70;101195.56;5012279;28;20092;-69
2021/04/14 09:24:49;;;;;;;4.47;3.85;;;;;;;18.69;31.87;101197.59;5011450;28;20042;-67
2021/04/14 09:27:38;;;;;;;;;;;;;;;17.96;30.94;101197.25;5012673;28;20121;-69
2021/04/14 09:30:32;;;;;;;2.75;2.50;;;;;;;17.88;30.95;101186.34;5007713;28;19929;-66
2021/04/14 09:33:12;;;;;;;2.70;2.50;;;;;;;18.04;32.30;101192.31;5011756;28;20050;-69
2021/04/14 09:35:43;;;;;;;2.25;2.03;;;;;;;17.88;32.07;101186.34;5012571;28;20308;-76
2021/04/14 09:38:22;;;;;;;3.55;2.80;;;;;;;17.87;31.20;101184.66;5013339;28;20045;-68
2021/04/14 09:40:49;;;;;;;4.75;3.00;;;;;;;17.34;32.08;101181.03;5012635;28;20053;-67
2021/04/14 09:43:28;;;;;;;3.28;2.88;;;;;;;17.89;33.92;101172.22;5005197;28;20034;-71
2021/04/14 09:45:57;;;;;;;2.85;2.53;;;;;;;17.59;33.37;101180.31;5013173;28;20141;-67
2021/04/14 09:48:24;;;;;;;2.60;2.40;;;;;;;17.02;33.69;101173.34;5011637;28;20126;-68
2021/04/14 09:50:51;;;;;;;2.83;2.55;;;;;;;16.35;32.72;101180.03;5013590;28;20057;-70
2021/04/14 09:53:22;;;;;;;2.58;2.38;;;;;;;15.97;34.61;101175.22;4999659;28;20074;-69
2021/04/14 09:56:12;;;;;;;3.13;2.75;;;;;;;15.60;37.01;101168.56;4994075;28;20097;-74
2021/04/14 09:58:50;;;;;;;2.40;2.20;;;;;;;16.11;35.36;101167.41;5006997;28;20049;-70
2021/04/14 10:01:39;;;;;;;2.50;2.30;;;;;;;16.24;34.96;101168.38;5013591;28;20074;-78
2021/04/14 10:04:14;;;;;;;2.53;2.33;;;;;;;16.32;34.45;101159.19;5011211;28;20119;-71
2021/04/14 10:06:42;;;;;;;3.53;2.80;;;;;;;15.94;36.63;101170.16;5013485;28;20544;-73
2021/04/14 10:09:24;;;;;;;5.25;2.42;;;;;;;16.01;37.65;101166.25;5009736;28;20049;-70
2021/04/14 10:11:51;;;;;;;2.78;2.47;;;;;;;16.36;34.80;101155.44;5003337;28;20066;-74
2021/04/14 10:14:18;;;;;;;2.35;2.15;;;;;;;16.17;35.52;101156.50;5010478;28;20073;-76
2021/04/14 10:16:46;;;;;;;2.58;2.38;;;;;;;15.55;35.66;101147.78;5012889;28;20615;-75
2021/04/14 10:19:24;;;;;;;3.60;2.30;;;;;;;15.87;35.93;101150.41;4995376;28;20585;-73
2021/04/14 10:21:50;;;;;;;2.30;2.10;;;;;;;16.28;36.21;101149.78;5008483;28;20046;-73
2021/04/14 10:24:18;;;;;;;6.43;2.30;;;;;;;16.05;36.41;101149.34;5007685;28;20401;-74
2021/04/14 10:26:51;;;;;;;4.03;2.30;;;;;;;16.12;35.19;101142.78;5012725;28;20584;-73
2021/04/14 10:29:26;;;;;;;2.30;2.10;;;;;;;15.85;34.36;101139.97;5003416;28;20089;-72
2021/04/14 10:31:56;;;;;;;3.53;3.05;;;;;;;16.12;35.18;101142.78;5013106;28;20103;-70
2021/04/14 10:34:46;;;;;;;3.75;2.53;;;;;;;15.67;36.74;101141.91;5010520;28;20038;-73
2021/04/14 10:37:24;;;;;;;3.35;2.28;;;;;;;16.06;35.88;101127.38;5012039;28;20485;-69
2021/04/14 10:39:52;;;;;;;5.82;2.40;;;;;;;16.09;36.39;101137.72;4993014;28;20101;-70
2021/04/14 10:42:25;;;;;;;7.45;1.83;;;;;;;16.37;36.96;101136.09;4996991;28;20092;-72
2021/04/14 10:44:54;;;;;;;3.00;1.70;;;;;;;15.73;36.04;101134.59;5011170;28;20125;-74
2021/04/14 10:47:26;;;;;;;2.08;1.88;;;;;;;16.01;34.39;101131.22;5007135;28;20034;-73
2021/04/14 10:50:01;;;;;;;2.40;2.20;;;;;;;16.16;33.07;101130.31;4992459;28;20784;-70
2021/04/14 10:52:29;;;;;;;2.00;1.80;;;;;;;16.06;33.64;101126.53;4996493;28;20477;-70
2021/04/14 10:55:00;;;;;;;2.80;2.10;;;;;;;15.69;33.81;101119.00;5002638;28;20433;-69
2021/04/14 10:57:35;;;;;;;2.10;1.90;;;;;;;15.68;34.19;101116.47;4992133;28;20070;-69
2021/04/14 11:00:13;;;;;;;2.30;2.17;;;;;;;15.80;34.17;101118.38;4991416;28;20049;-70
2021/04/14 11:02:44;;;;;;;3.55;2.30;;;;;;;15.81;32.70;101113.97;4996263;28;20142;-71
2021/04/14 11:05:14;;;;;;;1.88;1.77;;;;;;;15.58;32.31;101110.84;5002480;28;20145;-70
2021/04/14 11:07:43;;;;;;;4.38;1.90;;;;;;;15.77;32.01;101110.69;4992622;28;20397;-70
2021/04/14 11:10:20;;;;;;;3.67;2.40;;;;;;;15.66;32.37;101105.19;4997615;28;20501;-71
2021/04/14 11:12:50;;;;;;;2.67;2.15;;;;;;;15.49;35.55;101106.09;4991710;28;20070;-70
2021/04/14 11:15:22;;;;;;;2.63;2.20;;;;;;;15.47;35.00;101100.09;5010174;28;20133;-71
2021/04/14 11:17:58;;;;;;;3.00;2.50;;;;;;;15.60;33.25;101098.44;4993912;28;20054;-69
2021/04/14 11:20:36;;;;;;;2.53;2.20;;;;;;;15.39;34.59;101099.66;4991848;28;20084;-71
2021/04/14 11:23:03;;;;;;;2.65;2.45;;;;;;;15.24;34.33;101088.28;5008413;28;20065;-71
2021/04/14 11:25:29;;;;;;;4.68;2.15;;;;;;;15.46;34.61;101091.38;5012160;28;20046;-71
2021/04/14 11:28:01;;;;;;;2.47;2.28;;;;;;;15.33;32.97;101085.09;4994055;28;20045;-70
2021/04/14 11:30:29;;;;;;;4.07;2.20;;;;;;;15.35;33.34;101078.00;4991554;28;20101;-69
2021/04/14 11:33:02;;;;;;;2.85;2.10;;;;;;;15.66;34.04;101077.13;4996677;28;20093;-71
2021/04/14 11:35:39;;;;;;;1.98;1.88;;;;;;;15.46;33.43;101074.75;5010236;28;20096;-69
2021/04/14 11:38:06;;;;;;;2.60;2.30;;;;;;;15.36;32.76;101073.59;5005812;28;20046;-70
2021/04/14 11:40:37;;;;;;;2.58;2.13;;;;;;;15.43;33.15;101069.66;5009809;28;20145;-71
2021/04/14 11:43:23;;;;;;;2.50;2.22;;;;;;;15.50;32.59;101068.41;4999821;28;20595;-69
2021/04/14 11:46:24;;;;;;;2.67;2.47;;;;;;;15.41;36.52;101066.31;5007759;28;20080;-70
2021/04/14 11:48:57;;;;;;;3.15;2.42;;;;;;;15.51;33.58;101070.09;5006820;28;20041;-69
2021/04/14 11:51:29;;;;;;;3.00;2.10;;;;;;;15.46;34.70;101065.09;5005347;28;20065;-68